• Join FlightAware (Why Join?)
  • Login
  • US Flag 
Rudolph Flight #1: Arrived! 
12:57AM EST


 

Airport Tracker/Info


-or-


 

Live Flight TrackerFlight Track Log ✈ SKW6492 ✈ 22-Jan-2014 ✈ KDEN - KCOD

Flight Track Log - Related Links

Times and Time Zones

All times are in EST time to prevent confusion due to time zone crossing. See the SKW6492 flight status page for this flight to view local times or setup timezone preferences in your user account.

Time Position Orientation Groundspeed Altitude Reporting Facility
EST Latitude Longitude Course Direction KTS MPH feet Rate Location/Type
10:13PM 39.9333 -104.6833 10° North 215 247 7,200  Level Denver TRACON
10:15PM 40.0319 -104.6611 10° North 271 312 10,300 2,220 Climbing Denver Center
10:16PM 40.1125 -104.6728 354° North 295 339 12,400 1,800 Climbing Denver Center
10:17PM 40.1986 -104.6953 349° North 314 361 14,100 1,740 Climbing Denver Center
10:18PM 40.2947 -104.7208 349° North 326 375 16,000 1,740 Climbing Denver Center
10:19PM 40.3886 -104.7456 349° North 343 395 17,700 1,560 Climbing Denver Center
10:20PM 40.4833 -104.7706 349° North 348 400 19,200 1,560 Climbing Denver Center
10:21PM 40.5822 -104.7953 349° North 364 419 20,900 1,560 Climbing Denver Center
10:22PM 40.6742 -104.8189 349° North 347 399 22,500 1,260 Climbing Denver Center
10:23PM 40.7722 -104.8442 349° North 357 411 23,600 1,080 Climbing Denver Center
10:24PM 40.8675 -104.8883 341° North 362 417 24,700 1,080 Climbing Denver Center
10:25PM 40.9836 -104.9456 340° North 371 427 25,900 960 Climbing Denver Center
10:26PM 41.0733 -104.9911 339° North 374 430 26,700 840 Climbing Denver Center
10:27PM 41.1850 -105.0431 341° North 379 436 27,700 900 Climbing Denver Center
10:28PM 41.2806 -105.0917 339° North 383 441 28,600 780 Climbing Denver Center
10:29PM 41.3753 -105.1389 339° North 381 438 29,400 780 Climbing Denver Center
10:30PM 41.4858 -105.1933 340° North 380 437 30,200 720 Climbing Denver Center
10:31PM 41.5778 -105.2483 336° Northwest 377 434 30,900 720 Climbing Denver Center
10:32PM 41.6658 -105.3450 321° Northwest 369 425 31,700 480 Climbing Denver Center
10:33PM 41.7408 -105.4258 321° Northwest 365 420 32,000 120 Climbing Denver Center
10:34PM 41.8178 -105.5097 321° Northwest 370 426 32,000  Level Denver Center
10:35PM 41.9086 -105.6075 321° Northwest 373 429 32,000  Level Denver Center
10:36PM 41.9856 -105.6922 321° Northwest 374 430 32,000  Level Denver Center
10:37PM 42.0878 -105.8042 321° Northwest 371 427 32,000  Level Denver Center
10:38PM 42.1622 -105.8889 320° Northwest 369 425 32,000  Level Denver Center
10:39PM 42.2397 -105.9731 321° Northwest 371 427 32,000  Level Denver Center
10:40PM 42.3281 -106.0708 321° Northwest 368 423 32,000  Level Denver Center
10:41PM 42.4025 -106.1547 320° Northwest 365 420 32,000  Level Denver Center
10:42PM 42.4767 -106.2347 322° Northwest 359 413 32,000  Level Denver Center
10:43PM 42.5589 -106.3297 320° Northwest 352 405 32,000  Level Denver Center
10:44PM 42.6317 -106.4128 320° Northwest 356 410 32,000  Level Denver Center
10:45PM 42.7192 -106.5106 321° Northwest 363 418 32,000  Level Denver Center
10:46PM 42.7931 -106.5958 320° Northwest 364 419 32,000  Level Denver Center
10:47PM 42.8692 -106.6808 321° Northwest 367 422 32,000  Level Denver Center
10:49PM 42.9586 -106.7825 320° Northwest 374 430 32,000  Level Denver Center
10:50PM 43.0347 -106.8708 320° Northwest 377 434 32,000  Level Denver Center
10:50PM 43.1053 -106.9522 320° Northwest 378 435 32,000  Level Salt Lake Center
10:51PM 43.1811 -107.0433 319° Northwest 366 421 32,000  Level Salt Lake Center
10:52PM 43.2575 -107.1311 320° Northwest 360 414 32,000  Level Salt Lake Center
10:53PM 43.3322 -107.2186 320° Northwest 356 410 32,000  Level Salt Lake Center
10:54PM 43.4081 -107.3069 320° Northwest 357 411 32,000  Level Salt Lake Center
10:55PM 43.4872 -107.3900 323° Northwest 359 413 32,000  Level Salt Lake Center
10:56PM 43.5661 -107.4797 321° Northwest 363 418 32,000  Level Salt Lake Center
10:58PM 43.6453 -107.5711 320° Northwest 369 425 32,000  Level Salt Lake Center
10:59PM 43.7411 -107.6828 320° Northwest 374 430 32,000 -300 Level Salt Lake Center
11:00PM 43.8219 -107.7778 320° Northwest 379 436 31,500 -1,620 Descending Salt Lake Center
11:01PM 43.9036 -107.8739 320° Northwest 385 443 28,700 -2,760 Descending Salt Lake Center
11:02PM 43.9897 -107.9739 320° Northwest 400 460 26,000 -2,640 Descending Salt Lake Center
11:03PM 44.0725 -108.0711 320° Northwest 392 451 23,300 -2,640 Descending Salt Lake Center
11:04PM 44.1486 -108.1619 319° Northwest 368 423 20,600 -2,640 Descending Salt Lake Center
11:05PM 44.2217 -108.2481 320° Northwest 351 404 18,000 -2,340 Descending Salt Lake Center
11:06PM 44.2922 -108.3306 320° Northwest 340 391 15,900 -2,040 Descending Salt Lake Center
11:07PM 44.3578 -108.4094 319° Northwest 328 377 13,900 -1,980 Descending Salt Lake Center
11:08PM 44.4189 -108.4828 319° Northwest 311 358 11,900 -1,860 Descending Salt Lake Center
11:09PM 44.4767 -108.5514 320° Northwest 293 337 10,200 -1,440 Descending Salt Lake Center
11:10PM 44.5350 -108.6214 319° Northwest 258 297 9,000 -660 Descending Salt Lake Center
11:11PM 44.5761 -108.6711 319° Northwest 223 257 8,900 -420 Descending Salt Lake Center
11:12PM 44.6183 -108.7183 321° Northwest 206 237 8,200 -480 Descending Salt Lake Center
11:13PM 44.6581 -108.7606 323° Northwest 194 223 8,000 -360 Descending Salt Lake Center
11:14PM 44.6350 -108.8200 241° Southwest 183 211 7,500 -300 Descending Salt Lake Center
11:15PM 44.6078 -108.8694 232° Southwest 170 196 7,500 -360 Level Salt Lake Center
11:16PM 44.5792 -108.9211 232° Southwest 167 192 6,800 -840 Descending Salt Lake Center
11:17PM 44.5525 -108.9697 232° Southwest 164 189 5,900 240 Descending Salt Lake Center
11:18PM 44.5247 -109.0211 233° Southwest 163 188 7,300 1,320 Climbing Salt Lake Center
11:19PM 44.4764 -109.0658 213° Southwest 203 234 8,600 1,380 Climbing Salt Lake Center
11:20PM 44.4419 -108.9700 117° Southeast 235 270 10,200 1,500 Climbing Salt Lake Center
11:21PM 44.3914 -108.8869 130° Southeast 262 302 11,700 1,440 Climbing Salt Lake Center
11:22PM 44.3300 -108.8083 137° Southeast 289 333 13,200 1,080 Climbing Salt Lake Center
11:23PM 44.2708 -108.7500 145° Southeast 281 323 14,000 300 Climbing Salt Lake Center
11:24PM 44.2006 -108.7108 158° South 276 318 13,900  Descending Salt Lake Center
11:25PM 44.1406 -108.7394 199° South 284 327 14,000 60 Climbing Salt Lake Center
11:26PM 44.1864 -108.7950 319° Northwest 277 319 14,100 660 Climbing Salt Lake Center
11:27PM 44.2567 -108.7592 20° North 270 311 15,400 1,440 Climbing Salt Lake Center
11:28PM 44.2506 -108.6394 94° East 322 371 17,100 1,620 Climbing Salt Lake Center
11:29PM 44.1558 -108.5708 153° Southeast 378 435 18,800 2,040 Climbing Salt Lake Center
11:30PM 44.0533 -108.4764 146° Southeast 373 429 21,300 2,040 Climbing Salt Lake Center
11:31PM 43.9689 -108.3919 144° Southeast 375 432 23,000 1,200 Climbing Salt Lake Center
11:32PM 43.8794 -108.3050 145° Southeast 391 450 23,800 780 Climbing Salt Lake Center
11:33PM 43.7828 -108.2119 145° Southeast 419 482 24,600 780 Climbing Salt Lake Center
11:34PM 43.6822 -108.1211 147° Southeast 432 497 25,400 780 Climbing Salt Lake Center
11:35PM 43.5775 -108.0300 148° Southeast 443 510 26,200 900 Climbing Salt Lake Center
11:36PM 43.4722 -107.9375 147° Southeast 450 518 27,300 960 Climbing Salt Lake Center
11:37PM 43.3675 -107.8472 148° Southeast 447 514 28,200 780 Climbing Salt Lake Center
11:38PM 43.2611 -107.7558 148° Southeast 451 519 28,900 780 Climbing Salt Lake Center
11:39PM 43.1550 -107.6636 148° Southeast 454 522 29,900 1,020 Climbing Salt Lake Center
11:40PM 43.0292 -107.5553 148° Southeast 448 516 31,000 540 Climbing Salt Lake Center
11:41PM 42.9233 -107.4642 148° Southeast 450 518 31,000  Level Salt Lake Center
11:42PM 42.8194 -107.3753 148° Southeast 448 516 31,000  Level Salt Lake Center
11:43PM 42.7525 -107.3175 148° Southeast 446 513 31,000  Level Denver Center
11:44PM 42.6506 -107.2308 148° Southeast 446 513 31,000  Level Denver Center
11:45PM 42.5528 -107.1478 148° Southeast 440 506 31,000  Level Denver Center
11:46PM 42.4200 -107.0369 148° Southeast 439 505 31,000  Level Denver Center
11:47PM 42.3203 -106.9536 148° Southeast 440 506 31,000  Level Denver Center
11:48PM 42.1997 -106.8525 148° Southeast 451 519 31,000  Level Denver Center
11:49PM 42.0950 -106.7644 148° Southeast 459 528 31,000  Level Denver Center
11:50PM 41.9853 -106.6750 149° Southeast 472 543 31,000  Level Denver Center
11:51PM 41.8611 -106.5733 149° Southeast 471 542 31,000  Level Denver Center
11:52PM 41.7617 -106.4861 147° Southeast 458 527 31,000  Level Denver Center
11:53PM 41.6494 -106.3825 145° Southeast 445 512 31,000  Level Denver Center
11:54PM 41.5497 -106.2903 145° Southeast 453 521 31,000  Level Denver Center
11:55PM 41.4489 -106.1989 146° Southeast 458 527 31,000  Level Denver Center
11:56PM 41.3333 -106.0947 146° Southeast 452 520 31,000  Level Denver Center
11:57PM 41.2347 -106.0056 146° Southeast 450 518 31,000  Level Denver Center
11:58PM 41.1344 -105.9144 146° Southeast 455 524 31,000 -120 Level Denver Center
11:59PM 41.0181 -105.8119 146° Southeast 452 520 30,800 -1,020 Descending Denver Center
12:00AM 40.9144 -105.7175 145° Southeast 449 517 29,000 -1,860 Descending Denver Center
12:01AM 40.8147 -105.6306 147° Southeast 437 503 27,100 -1,800 Descending Denver Center
12:02AM 40.7206 -105.5458 146° Southeast 416 479 25,400 -1,680 Descending Denver Center
12:03AM 40.6269 -105.4636 146° Southeast 407 468 23,700 -1,620 Descending Denver Center
12:04AM 40.5583 -105.3561 130° Southeast 391 450 22,200 -1,440 Descending Denver Center
12:05AM 40.5000 -105.2519 126° Southeast 361 415 20,900 -1,560 Descending Denver Center
12:07AM 40.4136 -105.1758 146° Southeast 344 396 19,100 -1,560 Descending Denver Center
12:08AM 40.3350 -105.1106 148° Southeast 338 389 17,800 -1,380 Descending Denver Center
12:09AM 40.2564 -105.0500 150° Southeast 329 379 16,300 -1,500 Descending Denver Center
12:10AM 40.1808 -104.9875 148° Southeast 323 372 14,800 -1,140 Descending Denver Center
12:11AM 40.1042 -104.9278 149° Southeast 322 371 14,100 -720 Descending Denver Center
12:12AM 40.0336 -104.8708 148° Southeast 302 348 13,400 -900 Descending Denver Center
12:13AM 39.9592 -104.8122 149° Southeast 293 337 12,400 -1,020 Descending Denver Center
12:14AM 39.8842 -104.8000 173° South 274 315 11,400 -1,200 Descending Denver Center
12:15AM 39.8097 -104.7922 175° South 272 313 10,000 -1,380 Descending Denver Center
12:16AM 39.7389 -104.7817 173° South 263 303 8,600 -1,020 Descending Denver Center
12:17AM 39.6694 -104.7439 157° South 252 290 8,000 -300 Descending Denver Center
12:18AM 39.6583 -104.6736 102° East 212 244 8,000 -180 Level Denver Center
12:19AM 39.7133 -104.6608 10° North 213 245 7,700 -600 Descending Denver Center
12:20AM 39.7619 -104.6622 359° North 178 205 6,900 -840 Descending Denver Center
12:21AM 39.8003 -104.6608 North 143 165 6,100 -720 Descending Denver Center
12:22AM 39.8389 -104.6600 North 137 158 5,500 -600 Descending Denver Center
12:24AM 39.8500 -104.6667 355° North  Level FlightAware Approximate
12:31AM 39.8617 -104.6732 355° North  Level Estimated
12:32AM 39.8617 -104.6732 355° North  Level Estimated